North Grosvendale, Connecticut
Current Conditions -  °F | °C
As of 6:54 PM on Friday 31 Oct 2014 (Local Time) from KORH Reporting Station
Overcast Overcast  
Wind Chill: 40°   Ceiling: 5500
Heat Index: 45°   Visibility: 10mi
Dew Point: 36°   Wind: 9mph
Humidity: 71%   Direction: 70°ENE
Pressure: 29.98"   Gusts: NA
Location:  41.987°N, 71.9027°W
Report Text: KORH 312254Z 07008KT 10SM SCT042 OVC055 07/02 A2998 RMK AO2 SLP158 T00720022
Loading
Personal Weather Stations






























Interactive Weather Map
Tropical Storm Tracking
New forecast layout! Learn more

10-Day Weather Forecast

Advertisements
Track Severe Weather on mobile